ZKDAY WAEE-WAMN
Flight info
| Callsign | ZKDAY |
|---|---|
| Flight time | 1h 46m |
| Altitude | 4000 |
| Route | 0250N12700E TENAV |
| Aircraft | C172/L-SFG/C |
Departure
| Time | 2026-04-23 15:10 |
|---|---|
| Airport | Sultan Babullah Airport (WAEE) |
Arrival
| Time | 2026-04-23 16:56 |
|---|---|
| Airport | Melangguane Airport (WAMN) |
| Time | Latitude | Longitude | Altitude | Speed | Heading |
|---|---|---|---|---|---|
| 2026-04-23 15:05 | 0.83181 | 127.37928 | 77 ft | 0 kts | 324° |
| 2026-04-23 15:06 | 0.83186 | 127.37925 | 84 ft | 3 kts | 324° |
| 2026-04-23 15:06 | 0.83212 | 127.37931 | 80 ft | 0 kts | 54° |
| 2026-04-23 15:06 | 0.83220 | 127.37945 | 79 ft | 8 kts | 61° |
| 2026-04-23 15:07 | 0.83256 | 127.38004 | 73 ft | 10 kts | 69° |
| 2026-04-23 15:07 | 0.83227 | 127.38056 | 77 ft | 10 kts | 139° |
| 2026-04-23 15:07 | 0.83156 | 127.38111 | 76 ft | 14 kts | 140° |
| 2026-04-23 15:07 | 0.83092 | 127.38166 | 76 ft | 11 kts | 138° |
| 2026-04-23 15:08 | 0.83043 | 127.38211 | 75 ft | 10 kts | 139° |
| 2026-04-23 15:08 | 0.82968 | 127.38267 | 74 ft | 18 kts | 143° |
| 2026-04-23 15:08 | 0.82859 | 127.38346 | 70 ft | 15 kts | 140° |
| 2026-04-23 15:09 | 0.83199 | 127.38095 | 76 ft | 72 kts | 322° |
| 2026-04-23 15:09 | 0.83645 | 127.37757 | 178 ft | 84 kts | 326° |
| 2026-04-23 15:09 | 0.84174 | 127.37478 | 325 ft | 89 kts | 343° |
| 2026-04-23 15:09 | 0.84824 | 127.37353 | 392 ft | 103 kts | 356° |
| 2026-04-23 15:10 | 0.85307 | 127.37339 | 471 ft | 106 kts | 2° |
| 2026-04-23 15:10 | 0.86247 | 127.37308 | 770 ft | 96 kts | 357° |
| 2026-04-23 15:10 | 0.86892 | 127.37242 | 1010 ft | 90 kts | 357° |
| 2026-04-23 15:10 | 0.87488 | 127.37159 | 1253 ft | 83 kts | 355° |
| 2026-04-23 15:11 | 0.87848 | 127.37094 | 1414 ft | 76 kts | 350° |
| 2026-04-23 15:11 | 0.88364 | 127.36999 | 1584 ft | 78 kts | 352° |
| 2026-04-23 15:11 | 0.88933 | 127.36915 | 1696 ft | 87 kts | 352° |
| 2026-04-23 15:11 | 0.89574 | 127.36810 | 1807 ft | 100 kts | 353° |
| 2026-04-23 15:12 | 0.90287 | 127.36683 | 1896 ft | 108 kts | 350° |
| 2026-04-23 15:12 | 0.91049 | 127.36540 | 1980 ft | 114 kts | 351° |
| 2026-04-23 15:12 | 0.91838 | 127.36389 | 2066 ft | 116 kts | 352° |
| 2026-04-23 15:12 | 0.92638 | 127.36236 | 2163 ft | 118 kts | 352° |
| 2026-04-23 15:13 | 0.93448 | 127.36082 | 2248 ft | 119 kts | 352° |
| 2026-04-23 15:13 | 0.94261 | 127.35928 | 2354 ft | 119 kts | 352° |
| 2026-04-23 15:13 | 0.95076 | 127.35773 | 2448 ft | 119 kts | 352° |
| 2026-04-23 15:13 | 0.95890 | 127.35618 | 2542 ft | 119 kts | 352° |
| 2026-04-23 15:14 | 0.96701 | 127.35464 | 2637 ft | 118 kts | 352° |
| 2026-04-23 15:14 | 0.97504 | 127.35312 | 2720 ft | 117 kts | 352° |
| 2026-04-23 15:14 | 0.98303 | 127.35159 | 2818 ft | 116 kts | 353° |
| 2026-04-23 15:14 | 0.99096 | 127.35008 | 2920 ft | 116 kts | 352° |
| 2026-04-23 15:15 | 0.99890 | 127.34858 | 3020 ft | 116 kts | 353° |
| 2026-04-23 15:15 | 1.00681 | 127.34707 | 3116 ft | 116 kts | 353° |
| 2026-04-23 15:15 | 1.01470 | 127.34557 | 3208 ft | 115 kts | 353° |
| 2026-04-23 15:15 | 1.02255 | 127.34409 | 3304 ft | 115 kts | 353° |
| 2026-04-23 15:16 | 1.03036 | 127.34260 | 3406 ft | 114 kts | 353° |
| 2026-04-23 15:16 | 1.03817 | 127.34112 | 3497 ft | 114 kts | 353° |
| 2026-04-23 15:16 | 1.04594 | 127.33964 | 3594 ft | 114 kts | 353° |
| 2026-04-23 15:16 | 1.05372 | 127.33817 | 3691 ft | 114 kts | 352° |
| 2026-04-23 15:17 | 1.06150 | 127.33669 | 3783 ft | 114 kts | 352° |
| 2026-04-23 15:17 | 1.06927 | 127.33522 | 3880 ft | 113 kts | 353° |
| 2026-04-23 15:17 | 1.07700 | 127.33375 | 3977 ft | 113 kts | 353° |
| 2026-04-23 15:17 | 1.08472 | 127.33228 | 4074 ft | 113 kts | 352° |
| 2026-04-23 15:18 | 1.09244 | 127.33082 | 4170 ft | 113 kts | 353° |
| 2026-04-23 15:18 | 1.10016 | 127.32935 | 4266 ft | 113 kts | 353° |
| 2026-04-23 15:18 | 1.10788 | 127.32788 | 4376 ft | 112 kts | 352° |
| 2026-04-23 15:18 | 1.11551 | 127.32643 | 4500 ft | 111 kts | 353° |
| 2026-04-23 15:19 | 1.12308 | 127.32498 | 4620 ft | 110 kts | 352° |
| 2026-04-23 15:19 | 1.13054 | 127.32356 | 4740 ft | 109 kts | 353° |
| 2026-04-23 15:19 | 1.13785 | 127.32217 | 4859 ft | 108 kts | 353° |
| 2026-04-23 15:19 | 1.14519 | 127.32078 | 4979 ft | 107 kts | 353° |
| 2026-04-23 15:20 | 1.15247 | 127.31940 | 5099 ft | 106 kts | 353° |
| 2026-04-23 15:20 | 1.15973 | 127.31801 | 5218 ft | 106 kts | 353° |
| 2026-04-23 15:20 | 1.16694 | 127.31665 | 5345 ft | 106 kts | 353° |
| 2026-04-23 15:20 | 1.17416 | 127.31529 | 5468 ft | 105 kts | 353° |
| 2026-04-23 15:21 | 1.18131 | 127.31392 | 5587 ft | 104 kts | 353° |
| 2026-04-23 15:21 | 1.18843 | 127.31258 | 5702 ft | 104 kts | 353° |
| 2026-04-23 15:21 | 1.19552 | 127.31122 | 5822 ft | 103 kts | 353° |
| 2026-04-23 15:21 | 1.20253 | 127.30990 | 5948 ft | 102 kts | 353° |
| 2026-04-23 15:22 | 1.20948 | 127.30857 | 6064 ft | 101 kts | 353° |
| 2026-04-23 15:22 | 1.21638 | 127.30726 | 6192 ft | 100 kts | 353° |
| 2026-04-23 15:22 | 1.22320 | 127.30596 | 6307 ft | 99 kts | 353° |
| 2026-04-23 15:22 | 1.22992 | 127.30468 | 6424 ft | 98 kts | 353° |
| 2026-04-23 15:23 | 1.23654 | 127.30341 | 6543 ft | 96 kts | 353° |
| 2026-04-23 15:23 | 1.24308 | 127.30218 | 6656 ft | 95 kts | 353° |
| 2026-04-23 15:23 | 1.24949 | 127.30094 | 6771 ft | 93 kts | 354° |
| 2026-04-23 15:23 | 1.25576 | 127.29974 | 6882 ft | 91 kts | 353° |
| 2026-04-23 15:24 | 1.26207 | 127.29856 | 6958 ft | 94 kts | 354° |
| 2026-04-23 15:24 | 1.26861 | 127.29735 | 7030 ft | 97 kts | 354° |
| 2026-04-23 15:24 | 1.27534 | 127.29611 | 7104 ft | 100 kts | 354° |
| 2026-04-23 15:24 | 1.28225 | 127.29481 | 7175 ft | 102 kts | 354° |
| 2026-04-23 15:25 | 1.28930 | 127.29347 | 7246 ft | 104 kts | 353° |
| 2026-04-23 15:25 | 1.29646 | 127.29212 | 7315 ft | 105 kts | 353° |
| 2026-04-23 15:25 | 1.30371 | 127.29074 | 7386 ft | 106 kts | 354° |
| 2026-04-23 15:25 | 1.31100 | 127.28935 | 7456 ft | 107 kts | 354° |
| 2026-04-23 15:26 | 1.31832 | 127.28796 | 7527 ft | 107 kts | 353° |
| 2026-04-23 15:26 | 1.32565 | 127.28657 | 7598 ft | 107 kts | 354° |
| 2026-04-23 15:26 | 1.33297 | 127.28519 | 7669 ft | 107 kts | 354° |
| 2026-04-23 15:26 | 1.34032 | 127.28383 | 7736 ft | 107 kts | 354° |
| 2026-04-23 15:27 | 1.34759 | 127.28247 | 7806 ft | 106 kts | 354° |
| 2026-04-23 15:27 | 1.35486 | 127.28111 | 7878 ft | 106 kts | 354° |
| 2026-04-23 15:27 | 1.36210 | 127.27974 | 7952 ft | 106 kts | 354° |
| 2026-04-23 15:27 | 1.36939 | 127.27837 | 7987 ft | 109 kts | 354° |
| 2026-04-23 15:28 | 1.37702 | 127.27697 | 7990 ft | 114 kts | 354° |
| 2026-04-23 15:28 | 1.38492 | 127.27552 | 7997 ft | 117 kts | 354° |
| 2026-04-23 15:28 | 1.39301 | 127.27401 | 7994 ft | 119 kts | 354° |
| 2026-04-23 15:28 | 1.40121 | 127.27246 | 7993 ft | 121 kts | 354° |
| 2026-04-23 15:29 | 1.40947 | 127.27089 | 7997 ft | 121 kts | 354° |
| 2026-04-23 15:29 | 1.41778 | 127.26931 | 7998 ft | 122 kts | 354° |
| 2026-04-23 15:29 | 1.42609 | 127.26773 | 7995 ft | 119 kts | 354° |
| 2026-04-23 15:29 | 1.43397 | 127.26622 | 7994 ft | 112 kts | 354° |
| 2026-04-23 15:30 | 1.44146 | 127.26476 | 7994 ft | 108 kts | 354° |
| 2026-04-23 15:30 | 1.44870 | 127.26336 | 8002 ft | 104 kts | 354° |
| 2026-04-23 15:30 | 1.45575 | 127.26200 | 8001 ft | 102 kts | 354° |
| 2026-04-23 15:30 | 1.46265 | 127.26068 | 8000 ft | 100 kts | 354° |
| 2026-04-23 15:31 | 1.46948 | 127.25938 | 8000 ft | 99 kts | 355° |
| 2026-04-23 15:31 | 1.47625 | 127.25810 | 8000 ft | 99 kts | 354° |
| 2026-04-23 15:31 | 1.48298 | 127.25682 | 8000 ft | 98 kts | 354° |
| 2026-04-23 15:31 | 1.48980 | 127.25552 | 8000 ft | 101 kts | 355° |
| 2026-04-23 15:32 | 1.49679 | 127.25422 | 7999 ft | 104 kts | 355° |
| 2026-04-23 15:32 | 1.50398 | 127.25288 | 7997 ft | 106 kts | 354° |
| 2026-04-23 15:32 | 1.51131 | 127.25152 | 7994 ft | 108 kts | 354° |
| 2026-04-23 15:32 | 1.51871 | 127.25012 | 7992 ft | 109 kts | 354° |
| 2026-04-23 15:33 | 1.52615 | 127.24870 | 7990 ft | 109 kts | 354° |
| 2026-04-23 15:33 | 1.53362 | 127.24728 | 7998 ft | 110 kts | 354° |
| 2026-04-23 15:33 | 1.54112 | 127.24587 | 7990 ft | 110 kts | 354° |
| 2026-04-23 15:33 | 1.54862 | 127.24443 | 7989 ft | 110 kts | 354° |
| 2026-04-23 15:34 | 1.55611 | 127.24301 | 7998 ft | 109 kts | 354° |
| 2026-04-23 15:34 | 1.56360 | 127.24159 | 7998 ft | 110 kts | 353° |
| 2026-04-23 15:34 | 1.57110 | 127.24017 | 7992 ft | 110 kts | 354° |
| 2026-04-23 15:34 | 1.57859 | 127.23874 | 7993 ft | 110 kts | 354° |
| 2026-04-23 15:35 | 1.58610 | 127.23731 | 7992 ft | 110 kts | 354° |
| 2026-04-23 15:35 | 1.59358 | 127.23589 | 7993 ft | 110 kts | 354° |
| 2026-04-23 15:35 | 1.60109 | 127.23446 | 7990 ft | 110 kts | 353° |
| 2026-04-23 15:35 | 1.60859 | 127.23305 | 7991 ft | 110 kts | 354° |
| 2026-04-23 15:36 | 1.61612 | 127.23162 | 7992 ft | 110 kts | 354° |
| 2026-04-23 15:36 | 1.62363 | 127.23019 | 7985 ft | 110 kts | 354° |
| 2026-04-23 15:36 | 1.63102 | 127.22878 | 7985 ft | 109 kts | 353° |
| 2026-04-23 15:36 | 1.63849 | 127.22736 | 7991 ft | 109 kts | 354° |
| 2026-04-23 15:37 | 1.64598 | 127.22593 | 7992 ft | 110 kts | 354° |
| 2026-04-23 15:37 | 1.65351 | 127.22452 | 7988 ft | 110 kts | 353° |
| 2026-04-23 15:37 | 1.65858 | 127.22355 | 7988 ft | 110 kts | 354° |
| 2026-04-23 15:37 | 1.66854 | 127.22166 | 7989 ft | 110 kts | 354° |
| 2026-04-23 15:38 | 1.67605 | 127.22024 | 7988 ft | 110 kts | 354° |
| 2026-04-23 15:38 | 1.68359 | 127.21881 | 7996 ft | 110 kts | 354° |
| 2026-04-23 15:38 | 1.69117 | 127.21737 | 7988 ft | 111 kts | 354° |
| 2026-04-23 15:38 | 1.69875 | 127.21593 | 7992 ft | 111 kts | 354° |
| 2026-04-23 15:39 | 1.70632 | 127.21449 | 7988 ft | 111 kts | 354° |
| 2026-04-23 15:39 | 1.71391 | 127.21305 | 7991 ft | 111 kts | 354° |
| 2026-04-23 15:39 | 1.72152 | 127.21162 | 7985 ft | 112 kts | 354° |
| 2026-04-23 15:39 | 1.72914 | 127.21017 | 7983 ft | 111 kts | 354° |
| 2026-04-23 15:40 | 1.73673 | 127.20871 | 7988 ft | 111 kts | 354° |
| 2026-04-23 15:40 | 1.74433 | 127.20727 | 7985 ft | 111 kts | 354° |
| 2026-04-23 15:40 | 1.75192 | 127.20583 | 7985 ft | 111 kts | 354° |
| 2026-04-23 15:40 | 1.75952 | 127.20439 | 7988 ft | 111 kts | 354° |
| 2026-04-23 15:41 | 1.76714 | 127.20295 | 7984 ft | 111 kts | 354° |
| 2026-04-23 15:41 | 1.77474 | 127.20150 | 7982 ft | 111 kts | 354° |
| 2026-04-23 15:41 | 1.78231 | 127.20005 | 7987 ft | 111 kts | 353° |
| 2026-04-23 15:41 | 1.78990 | 127.19862 | 7994 ft | 111 kts | 354° |
| 2026-04-23 15:42 | 1.79751 | 127.19718 | 7993 ft | 112 kts | 354° |
| 2026-04-23 15:42 | 1.80514 | 127.19573 | 7986 ft | 111 kts | 354° |
| 2026-04-23 15:42 | 1.81276 | 127.19428 | 7986 ft | 111 kts | 354° |
| 2026-04-23 15:42 | 1.82036 | 127.19283 | 7985 ft | 111 kts | 354° |
| 2026-04-23 15:43 | 1.82796 | 127.19139 | 7987 ft | 111 kts | 355° |
| 2026-04-23 15:43 | 1.83555 | 127.18995 | 7985 ft | 111 kts | 354° |
| 2026-04-23 15:43 | 1.84311 | 127.18851 | 7985 ft | 110 kts | 354° |
| 2026-04-23 15:43 | 1.85064 | 127.18708 | 7980 ft | 110 kts | 354° |
| 2026-04-23 15:44 | 1.85808 | 127.18565 | 7981 ft | 109 kts | 355° |
| 2026-04-23 15:44 | 1.86552 | 127.18423 | 7989 ft | 109 kts | 355° |
| 2026-04-23 15:44 | 1.87298 | 127.18282 | 7992 ft | 109 kts | 355° |
| 2026-04-23 15:44 | 1.88046 | 127.18141 | 7985 ft | 109 kts | 354° |
| 2026-04-23 15:45 | 1.88793 | 127.17999 | 7989 ft | 109 kts | 354° |
| 2026-04-23 15:45 | 1.89539 | 127.17858 | 7987 ft | 109 kts | 354° |
| 2026-04-23 15:45 | 1.90287 | 127.17716 | 7990 ft | 110 kts | 355° |
| 2026-04-23 15:45 | 1.91038 | 127.17573 | 7988 ft | 110 kts | 355° |
| 2026-04-23 15:46 | 1.91792 | 127.17430 | 7986 ft | 110 kts | 355° |
| 2026-04-23 15:46 | 1.92545 | 127.17287 | 7986 ft | 110 kts | 354° |
| 2026-04-23 15:46 | 1.93302 | 127.17143 | 7987 ft | 111 kts | 355° |
| 2026-04-23 15:46 | 1.94059 | 127.17000 | 7984 ft | 111 kts | 354° |
| 2026-04-23 15:47 | 1.94815 | 127.16856 | 7986 ft | 111 kts | 354° |
| 2026-04-23 15:47 | 1.95573 | 127.16712 | 7986 ft | 111 kts | 355° |
| 2026-04-23 15:47 | 1.96330 | 127.16569 | 7987 ft | 111 kts | 354° |
| 2026-04-23 15:47 | 1.97089 | 127.16425 | 7984 ft | 111 kts | 354° |
| 2026-04-23 15:48 | 1.97846 | 127.16281 | 7980 ft | 111 kts | 355° |
| 2026-04-23 15:48 | 1.98604 | 127.16136 | 7984 ft | 111 kts | 355° |
| 2026-04-23 15:48 | 1.99362 | 127.15993 | 7982 ft | 111 kts | 354° |
| 2026-04-23 15:48 | 2.00119 | 127.15849 | 7981 ft | 111 kts | 354° |
| 2026-04-23 15:49 | 2.00873 | 127.15706 | 7985 ft | 111 kts | 354° |
| 2026-04-23 15:49 | 2.01631 | 127.15562 | 7995 ft | 111 kts | 354° |
| 2026-04-23 15:49 | 2.02394 | 127.15418 | 7987 ft | 112 kts | 355° |
| 2026-04-23 15:49 | 2.03158 | 127.15272 | 7984 ft | 112 kts | 354° |
| 2026-04-23 15:50 | 2.03919 | 127.15127 | 7980 ft | 111 kts | 353° |
| 2026-04-23 15:50 | 2.04678 | 127.14983 | 7983 ft | 111 kts | 354° |
| 2026-04-23 15:50 | 2.05436 | 127.14839 | 7982 ft | 111 kts | 354° |
| 2026-04-23 15:50 | 2.06192 | 127.14695 | 7981 ft | 110 kts | 354° |
| 2026-04-23 15:51 | 2.06945 | 127.14552 | 7980 ft | 110 kts | 354° |
| 2026-04-23 15:51 | 2.07693 | 127.14409 | 7982 ft | 110 kts | 355° |
| 2026-04-23 15:51 | 2.08444 | 127.14267 | 7980 ft | 110 kts | 355° |
| 2026-04-23 15:51 | 2.09193 | 127.14125 | 7977 ft | 109 kts | 354° |
| 2026-04-23 15:52 | 2.09939 | 127.13982 | 7983 ft | 109 kts | 355° |
| 2026-04-23 15:52 | 2.10687 | 127.13841 | 7987 ft | 109 kts | 354° |
| 2026-04-23 15:52 | 2.11181 | 127.13748 | 7986 ft | 109 kts | 354° |
| 2026-04-23 15:52 | 2.12185 | 127.13557 | 7985 ft | 110 kts | 354° |
| 2026-04-23 15:53 | 2.12683 | 127.13462 | 7984 ft | 110 kts | 354° |
| 2026-04-23 15:53 | 2.13436 | 127.13319 | 7985 ft | 110 kts | 355° |
| 2026-04-23 15:53 | 2.14187 | 127.13177 | 7985 ft | 110 kts | 355° |
| 2026-04-23 15:53 | 2.14938 | 127.13034 | 7983 ft | 110 kts | 355° |
| 2026-04-23 15:54 | 2.15686 | 127.12891 | 7980 ft | 109 kts | 355° |
| 2026-04-23 15:54 | 2.16434 | 127.12749 | 7978 ft | 109 kts | 354° |
| 2026-04-23 15:54 | 2.17177 | 127.12607 | 7981 ft | 108 kts | 355° |
| 2026-04-23 15:54 | 2.17917 | 127.12466 | 7986 ft | 108 kts | 355° |
| 2026-04-23 15:55 | 2.18658 | 127.12326 | 7987 ft | 109 kts | 356° |
| 2026-04-23 15:55 | 2.19404 | 127.12185 | 7985 ft | 109 kts | 355° |
| 2026-04-23 15:55 | 2.20153 | 127.12044 | 7978 ft | 109 kts | 355° |
| 2026-04-23 15:55 | 2.20900 | 127.11901 | 7977 ft | 109 kts | 355° |
| 2026-04-23 15:56 | 2.21640 | 127.11760 | 7978 ft | 108 kts | 354° |
| 2026-04-23 15:56 | 2.22381 | 127.11619 | 7985 ft | 109 kts | 356° |
| 2026-04-23 15:56 | 2.23126 | 127.11478 | 7985 ft | 109 kts | 354° |
| 2026-04-23 15:56 | 2.23876 | 127.11336 | 7982 ft | 110 kts | 355° |
| 2026-04-23 15:57 | 2.24626 | 127.11194 | 7982 ft | 110 kts | 356° |
| 2026-04-23 15:57 | 2.25375 | 127.11051 | 7988 ft | 110 kts | 354° |
| 2026-04-23 15:57 | 2.26132 | 127.10909 | 7988 ft | 111 kts | 356° |
| 2026-04-23 15:57 | 2.26890 | 127.10765 | 7983 ft | 111 kts | 354° |
| 2026-04-23 15:58 | 2.27646 | 127.10621 | 7977 ft | 111 kts | 355° |
| 2026-04-23 15:58 | 2.28392 | 127.10479 | 7980 ft | 110 kts | 354° |
| 2026-04-23 15:58 | 2.29156 | 127.10333 | 7981 ft | 110 kts | 356° |
| 2026-04-23 15:58 | 2.29910 | 127.10189 | 7982 ft | 110 kts | 356° |
| 2026-04-23 15:59 | 2.30665 | 127.10046 | 7986 ft | 111 kts | 355° |
| 2026-04-23 15:59 | 2.31425 | 127.09903 | 7985 ft | 112 kts | 356° |
| 2026-04-23 15:59 | 2.32188 | 127.09759 | 7977 ft | 111 kts | 354° |
| 2026-04-23 15:59 | 2.32944 | 127.09615 | 7976 ft | 110 kts | 355° |
| 2026-04-23 16:00 | 2.33697 | 127.09470 | 7984 ft | 110 kts | 355° |
| 2026-04-23 16:00 | 2.34449 | 127.09327 | 7986 ft | 110 kts | 355° |
| 2026-04-23 16:00 | 2.35203 | 127.09184 | 7980 ft | 110 kts | 356° |
| 2026-04-23 16:00 | 2.35954 | 127.09041 | 7981 ft | 110 kts | 356° |
| 2026-04-23 16:01 | 2.36703 | 127.08899 | 7983 ft | 110 kts | 356° |
| 2026-04-23 16:01 | 2.37453 | 127.08757 | 7979 ft | 110 kts | 355° |
| 2026-04-23 16:01 | 2.38201 | 127.08614 | 7977 ft | 109 kts | 355° |
| 2026-04-23 16:01 | 2.38947 | 127.08472 | 7983 ft | 109 kts | 356° |
| 2026-04-23 16:02 | 2.39695 | 127.08330 | 7977 ft | 109 kts | 355° |
| 2026-04-23 16:02 | 2.40436 | 127.08189 | 7975 ft | 108 kts | 356° |
| 2026-04-23 16:02 | 2.41175 | 127.08048 | 7984 ft | 108 kts | 355° |
| 2026-04-23 16:02 | 2.41919 | 127.07907 | 7982 ft | 109 kts | 355° |
| 2026-04-23 16:03 | 2.42661 | 127.07766 | 7980 ft | 108 kts | 355° |
| 2026-04-23 16:03 | 2.43402 | 127.07626 | 7981 ft | 108 kts | 355° |
| 2026-04-23 16:03 | 2.44143 | 127.07484 | 7983 ft | 109 kts | 356° |
| 2026-04-23 16:03 | 2.44886 | 127.07344 | 7982 ft | 109 kts | 355° |
| 2026-04-23 16:04 | 2.45627 | 127.07203 | 7978 ft | 108 kts | 354° |
| 2026-04-23 16:04 | 2.46365 | 127.07063 | 7976 ft | 108 kts | 356° |
| 2026-04-23 16:04 | 2.47102 | 127.06922 | 7979 ft | 108 kts | 354° |
| 2026-04-23 16:04 | 2.47842 | 127.06782 | 7979 ft | 108 kts | 355° |
| 2026-04-23 16:05 | 2.48332 | 127.06688 | 7980 ft | 108 kts | 355° |
| 2026-04-23 16:05 | 2.49325 | 127.06500 | 7979 ft | 109 kts | 355° |
| 2026-04-23 16:05 | 2.50066 | 127.06359 | 7979 ft | 109 kts | 356° |
| 2026-04-23 16:05 | 2.50810 | 127.06218 | 7979 ft | 109 kts | 356° |
| 2026-04-23 16:06 | 2.51554 | 127.06076 | 7982 ft | 109 kts | 355° |
| 2026-04-23 16:06 | 2.52299 | 127.05935 | 7982 ft | 109 kts | 354° |
| 2026-04-23 16:06 | 2.53045 | 127.05793 | 7980 ft | 109 kts | 356° |
| 2026-04-23 16:06 | 2.53789 | 127.05652 | 7980 ft | 109 kts | 355° |
| 2026-04-23 16:07 | 2.54536 | 127.05510 | 7980 ft | 109 kts | 354° |
| 2026-04-23 16:07 | 2.55283 | 127.05368 | 7979 ft | 109 kts | 356° |
| 2026-04-23 16:07 | 2.56029 | 127.05226 | 7980 ft | 109 kts | 356° |
| 2026-04-23 16:07 | 2.56777 | 127.05084 | 7982 ft | 109 kts | 356° |
| 2026-04-23 16:08 | 2.57524 | 127.04942 | 7979 ft | 109 kts | 355° |
| 2026-04-23 16:08 | 2.58273 | 127.04800 | 7974 ft | 109 kts | 355° |
| 2026-04-23 16:08 | 2.59016 | 127.04658 | 7974 ft | 109 kts | 354° |
| 2026-04-23 16:08 | 2.59757 | 127.04517 | 7974 ft | 108 kts | 356° |
| 2026-04-23 16:09 | 2.60495 | 127.04376 | 7979 ft | 108 kts | 356° |
| 2026-04-23 16:09 | 2.61232 | 127.04235 | 7980 ft | 108 kts | 355° |
| 2026-04-23 16:09 | 2.61973 | 127.04095 | 7980 ft | 109 kts | 355° |
| 2026-04-23 16:09 | 2.62716 | 127.03955 | 7980 ft | 109 kts | 356° |
| 2026-04-23 16:10 | 2.63461 | 127.03813 | 7979 ft | 109 kts | 355° |
| 2026-04-23 16:10 | 2.64209 | 127.03672 | 7979 ft | 109 kts | 356° |
| 2026-04-23 16:10 | 2.64947 | 127.03532 | 7978 ft | 109 kts | 355° |
| 2026-04-23 16:10 | 2.65694 | 127.03389 | 7979 ft | 109 kts | 356° |
| 2026-04-23 16:11 | 2.66439 | 127.03247 | 7985 ft | 109 kts | 355° |
| 2026-04-23 16:11 | 2.67191 | 127.03105 | 7984 ft | 110 kts | 356° |
| 2026-04-23 16:11 | 2.67945 | 127.02962 | 7984 ft | 111 kts | 356° |
| 2026-04-23 16:11 | 2.68704 | 127.02818 | 7977 ft | 111 kts | 355° |
| 2026-04-23 16:12 | 2.69461 | 127.02674 | 7976 ft | 110 kts | 356° |
| 2026-04-23 16:12 | 2.70214 | 127.02530 | 7974 ft | 110 kts | 355° |
| 2026-04-23 16:12 | 2.70965 | 127.02387 | 7977 ft | 110 kts | 354° |
| 2026-04-23 16:12 | 2.71716 | 127.02244 | 7979 ft | 110 kts | 356° |
| 2026-04-23 16:13 | 2.72466 | 127.02101 | 7977 ft | 110 kts | 354° |
| 2026-04-23 16:13 | 2.73962 | 127.01816 | 7975 ft | 109 kts | 356° |
| 2026-04-23 16:13 | 2.74708 | 127.01674 | 7978 ft | 109 kts | 356° |
| 2026-04-23 16:14 | 2.75452 | 127.01533 | 7978 ft | 109 kts | 355° |
| 2026-04-23 16:14 | 2.76194 | 127.01391 | 7976 ft | 109 kts | 356° |
| 2026-04-23 16:14 | 2.76934 | 127.01251 | 7978 ft | 108 kts | 356° |
| 2026-04-23 16:14 | 2.77676 | 127.01110 | 7979 ft | 108 kts | 354° |
| 2026-04-23 16:15 | 2.78418 | 127.00969 | 7975 ft | 108 kts | 355° |
| 2026-04-23 16:15 | 2.79158 | 127.00828 | 7976 ft | 108 kts | 356° |
| 2026-04-23 16:15 | 2.79894 | 127.00688 | 7977 ft | 108 kts | 355° |
| 2026-04-23 16:15 | 2.80629 | 127.00547 | 7977 ft | 108 kts | 356° |
| 2026-04-23 16:16 | 2.81365 | 127.00408 | 7977 ft | 108 kts | 355° |
| 2026-04-23 16:16 | 2.82104 | 127.00268 | 7978 ft | 108 kts | 355° |
| 2026-04-23 16:16 | 2.82843 | 127.00128 | 7978 ft | 108 kts | 354° |
| 2026-04-23 16:16 | 2.83585 | 126.99987 | 7977 ft | 109 kts | 355° |
| 2026-04-23 16:17 | 2.84324 | 126.99809 | 7979 ft | 110 kts | 352° |
| 2026-04-23 16:17 | 2.85062 | 126.99601 | 7981 ft | 110 kts | 349° |
| 2026-04-23 16:17 | 2.85800 | 126.99385 | 7977 ft | 111 kts | 351° |
| 2026-04-23 16:17 | 2.86538 | 126.99169 | 7976 ft | 110 kts | 351° |
| 2026-04-23 16:18 | 2.87273 | 126.98956 | 7977 ft | 110 kts | 349° |
| 2026-04-23 16:18 | 2.88009 | 126.98747 | 7978 ft | 110 kts | 349° |
| 2026-04-23 16:18 | 2.88744 | 126.98539 | 7978 ft | 110 kts | 349° |
| 2026-04-23 16:18 | 2.89479 | 126.98333 | 7977 ft | 110 kts | 351° |
| 2026-04-23 16:19 | 2.90214 | 126.98127 | 7975 ft | 109 kts | 351° |
| 2026-04-23 16:19 | 2.90948 | 126.97924 | 7975 ft | 110 kts | 350° |
| 2026-04-23 16:19 | 2.91683 | 126.97721 | 7974 ft | 109 kts | 351° |
| 2026-04-23 16:19 | 2.92414 | 126.97518 | 7972 ft | 109 kts | 351° |
| 2026-04-23 16:20 | 2.93143 | 126.97315 | 7970 ft | 108 kts | 350° |
| 2026-04-23 16:20 | 2.93868 | 126.97113 | 7973 ft | 108 kts | 352° |
| 2026-04-23 16:20 | 2.94589 | 126.96913 | 7973 ft | 107 kts | 351° |
| 2026-04-23 16:20 | 2.95311 | 126.96713 | 7978 ft | 108 kts | 352° |
| 2026-04-23 16:21 | 2.96034 | 126.96514 | 7979 ft | 108 kts | 352° |
| 2026-04-23 16:21 | 2.96752 | 126.96316 | 7978 ft | 109 kts | 350° |
| 2026-04-23 16:21 | 2.97481 | 126.96114 | 7977 ft | 109 kts | 350° |
| 2026-04-23 16:21 | 2.98222 | 126.95909 | 7973 ft | 109 kts | 350° |
| 2026-04-23 16:22 | 2.98940 | 126.95709 | 7978 ft | 109 kts | 351° |
| 2026-04-23 16:22 | 2.99677 | 126.95506 | 7976 ft | 108 kts | 351° |
| 2026-04-23 16:22 | 3.00400 | 126.95304 | 7975 ft | 108 kts | 352° |
| 2026-04-23 16:22 | 3.01120 | 126.95103 | 7979 ft | 107 kts | 351° |
| 2026-04-23 16:23 | 3.01843 | 126.94903 | 7979 ft | 108 kts | 352° |
| 2026-04-23 16:23 | 3.02570 | 126.94704 | 7978 ft | 109 kts | 352° |
| 2026-04-23 16:23 | 3.03298 | 126.94503 | 7973 ft | 109 kts | 350° |
| 2026-04-23 16:23 | 3.04018 | 126.94304 | 7977 ft | 109 kts | 350° |
| 2026-04-23 16:24 | 3.04746 | 126.94102 | 7972 ft | 108 kts | 351° |
| 2026-04-23 16:24 | 3.05470 | 126.93900 | 7975 ft | 108 kts | 350° |
| 2026-04-23 16:24 | 3.06193 | 126.93700 | 7976 ft | 108 kts | 351° |
| 2026-04-23 16:24 | 3.06922 | 126.93499 | 7978 ft | 109 kts | 352° |
| 2026-04-23 16:25 | 3.07653 | 126.93297 | 7978 ft | 109 kts | 352° |
| 2026-04-23 16:25 | 3.08388 | 126.93094 | 7974 ft | 109 kts | 352° |
| 2026-04-23 16:25 | 3.09118 | 126.92889 | 7970 ft | 109 kts | 350° |
| 2026-04-23 16:25 | 3.09843 | 126.92688 | 7970 ft | 108 kts | 351° |
| 2026-04-23 16:26 | 3.10563 | 126.92487 | 7971 ft | 107 kts | 352° |
| 2026-04-23 16:26 | 3.11283 | 126.92286 | 7977 ft | 108 kts | 351° |
| 2026-04-23 16:26 | 3.12008 | 126.92087 | 7978 ft | 108 kts | 351° |
| 2026-04-23 16:26 | 3.12734 | 126.91886 | 7978 ft | 109 kts | 352° |
| 2026-04-23 16:27 | 3.13461 | 126.91685 | 7969 ft | 108 kts | 351° |
| 2026-04-23 16:27 | 3.14186 | 126.91484 | 7972 ft | 108 kts | 352° |
| 2026-04-23 16:27 | 3.14910 | 126.91283 | 7969 ft | 108 kts | 351° |
| 2026-04-23 16:27 | 3.15631 | 126.91083 | 7969 ft | 107 kts | 351° |
| 2026-04-23 16:28 | 3.16350 | 126.90883 | 7976 ft | 107 kts | 352° |
| 2026-04-23 16:28 | 3.17070 | 126.90684 | 7974 ft | 107 kts | 351° |
| 2026-04-23 16:28 | 3.17790 | 126.90483 | 7975 ft | 107 kts | 352° |
| 2026-04-23 16:28 | 3.18512 | 126.90283 | 7975 ft | 108 kts | 351° |
| 2026-04-23 16:29 | 3.19231 | 126.90084 | 7973 ft | 107 kts | 351° |
| 2026-04-23 16:29 | 3.19952 | 126.89885 | 7975 ft | 107 kts | 352° |
| 2026-04-23 16:29 | 3.20673 | 126.89687 | 7978 ft | 108 kts | 350° |
| 2026-04-23 16:29 | 3.21398 | 126.89486 | 7979 ft | 108 kts | 350° |
| 2026-04-23 16:30 | 3.22126 | 126.89284 | 7978 ft | 109 kts | 351° |
| 2026-04-23 16:30 | 3.22855 | 126.89082 | 7977 ft | 109 kts | 351° |
| 2026-04-23 16:30 | 3.23586 | 126.88880 | 7978 ft | 109 kts | 352° |
| 2026-04-23 16:30 | 3.24320 | 126.88676 | 7978 ft | 110 kts | 351° |
| 2026-04-23 16:31 | 3.25059 | 126.88472 | 7974 ft | 110 kts | 351° |
| 2026-04-23 16:31 | 3.25798 | 126.88268 | 7970 ft | 110 kts | 351° |
| 2026-04-23 16:31 | 3.26535 | 126.88062 | 7970 ft | 110 kts | 350° |
| 2026-04-23 16:31 | 3.27268 | 126.87858 | 7972 ft | 109 kts | 350° |
| 2026-04-23 16:32 | 3.28003 | 126.87654 | 7975 ft | 110 kts | 352° |
| 2026-04-23 16:32 | 3.28741 | 126.87450 | 7975 ft | 110 kts | 352° |
| 2026-04-23 16:32 | 3.29480 | 126.87246 | 7973 ft | 110 kts | 351° |
| 2026-04-23 16:32 | 3.30219 | 126.87040 | 7973 ft | 110 kts | 351° |
| 2026-04-23 16:33 | 3.30957 | 126.86836 | 7975 ft | 110 kts | 350° |
| 2026-04-23 16:33 | 3.31697 | 126.86631 | 7979 ft | 110 kts | 351° |
| 2026-04-23 16:33 | 3.32441 | 126.86426 | 7979 ft | 111 kts | 350° |
| 2026-04-23 16:33 | 3.33186 | 126.86220 | 7976 ft | 111 kts | 351° |
| 2026-04-23 16:34 | 3.33934 | 126.86012 | 7974 ft | 111 kts | 352° |
| 2026-04-23 16:34 | 3.34682 | 126.85805 | 7971 ft | 112 kts | 352° |
| 2026-04-23 16:34 | 3.35428 | 126.85597 | 7968 ft | 111 kts | 351° |
| 2026-04-23 16:34 | 3.36170 | 126.85390 | 7969 ft | 110 kts | 351° |
| 2026-04-23 16:35 | 3.36909 | 126.85185 | 7971 ft | 110 kts | 352° |
| 2026-04-23 16:35 | 3.37646 | 126.84981 | 7968 ft | 110 kts | 352° |
| 2026-04-23 16:35 | 3.38131 | 126.84846 | 7971 ft | 109 kts | 350° |
| 2026-04-23 16:35 | 3.38866 | 126.84641 | 7976 ft | 110 kts | 351° |
| 2026-04-23 16:36 | 3.39606 | 126.84437 | 7979 ft | 111 kts | 352° |
| 2026-04-23 16:36 | 3.40351 | 126.84232 | 7976 ft | 111 kts | 351° |
| 2026-04-23 16:36 | 3.41101 | 126.84024 | 7975 ft | 112 kts | 352° |
| 2026-04-23 16:36 | 3.41849 | 126.83817 | 7968 ft | 112 kts | 352° |
| 2026-04-23 16:37 | 3.42595 | 126.83609 | 7968 ft | 111 kts | 350° |
| 2026-04-23 16:37 | 3.43332 | 126.83403 | 7968 ft | 110 kts | 350° |
| 2026-04-23 16:37 | 3.44067 | 126.83200 | 7971 ft | 109 kts | 350° |
| 2026-04-23 16:37 | 3.44802 | 126.82996 | 7977 ft | 110 kts | 350° |
| 2026-04-23 16:38 | 3.45542 | 126.82791 | 7971 ft | 110 kts | 351° |
| 2026-04-23 16:38 | 3.46280 | 126.82585 | 7967 ft | 110 kts | 351° |
| 2026-04-23 16:38 | 3.47017 | 126.82380 | 7966 ft | 110 kts | 352° |
| 2026-04-23 16:38 | 3.47751 | 126.82176 | 7970 ft | 109 kts | 350° |
| 2026-04-23 16:39 | 3.48487 | 126.81973 | 7975 ft | 110 kts | 350° |
| 2026-04-23 16:39 | 3.49227 | 126.81768 | 7974 ft | 110 kts | 351° |
| 2026-04-23 16:39 | 3.49968 | 126.81563 | 7973 ft | 110 kts | 350° |
| 2026-04-23 16:39 | 3.50708 | 126.81357 | 7972 ft | 110 kts | 349° |
| 2026-04-23 16:40 | 3.51417 | 126.81043 | 7972 ft | 112 kts | 341° |
| 2026-04-23 16:40 | 3.52123 | 126.80719 | 7973 ft | 112 kts | 342° |
| 2026-04-23 16:40 | 3.52830 | 126.80397 | 7973 ft | 112 kts | 341° |
| 2026-04-23 16:40 | 3.53537 | 126.80074 | 7972 ft | 112 kts | 342° |
| 2026-04-23 16:41 | 3.54244 | 126.79748 | 7974 ft | 112 kts | 341° |
| 2026-04-23 16:41 | 3.54949 | 126.79422 | 7943 ft | 112 kts | 343° |
| 2026-04-23 16:41 | 3.55670 | 126.79093 | 7819 ft | 116 kts | 341° |
| 2026-04-23 16:41 | 3.56409 | 126.78754 | 7695 ft | 118 kts | 341° |
| 2026-04-23 16:42 | 3.57155 | 126.78409 | 7574 ft | 119 kts | 341° |
| 2026-04-23 16:42 | 3.57906 | 126.78060 | 7451 ft | 119 kts | 341° |
| 2026-04-23 16:42 | 3.58661 | 126.77710 | 7334 ft | 120 kts | 341° |
| 2026-04-23 16:42 | 3.59421 | 126.77358 | 7215 ft | 120 kts | 342° |
| 2026-04-23 16:43 | 3.60172 | 126.77010 | 7102 ft | 121 kts | 341° |
| 2026-04-23 16:43 | 3.60949 | 126.76651 | 6946 ft | 125 kts | 341° |
| 2026-04-23 16:43 | 3.61747 | 126.76283 | 6776 ft | 127 kts | 341° |
| 2026-04-23 16:43 | 3.62553 | 126.75910 | 6615 ft | 128 kts | 341° |
| 2026-04-23 16:44 | 3.63363 | 126.75535 | 6456 ft | 128 kts | 340° |
| 2026-04-23 16:44 | 3.64173 | 126.75158 | 6296 ft | 129 kts | 341° |
| 2026-04-23 16:44 | 3.64993 | 126.74779 | 6127 ft | 130 kts | 340° |
| 2026-04-23 16:44 | 3.65811 | 126.74400 | 5946 ft | 130 kts | 341° |
| 2026-04-23 16:45 | 3.66632 | 126.74018 | 5768 ft | 130 kts | 342° |
| 2026-04-23 16:45 | 3.67451 | 126.73640 | 5599 ft | 129 kts | 341° |
| 2026-04-23 16:45 | 3.68263 | 126.73262 | 5429 ft | 128 kts | 341° |
| 2026-04-23 16:45 | 3.69074 | 126.72887 | 5267 ft | 129 kts | 341° |
| 2026-04-23 16:46 | 3.69888 | 126.72510 | 5103 ft | 129 kts | 341° |
| 2026-04-23 16:46 | 3.70702 | 126.72133 | 4941 ft | 129 kts | 340° |
| 2026-04-23 16:46 | 3.71519 | 126.71756 | 4699 ft | 128 kts | 341° |
| 2026-04-23 16:46 | 3.72320 | 126.71390 | 4391 ft | 124 kts | 340° |
| 2026-04-23 16:47 | 3.73085 | 126.71034 | 4145 ft | 120 kts | 340° |
| 2026-04-23 16:47 | 3.73834 | 126.70684 | 3896 ft | 118 kts | 341° |
| 2026-04-23 16:47 | 3.74574 | 126.70339 | 3660 ft | 117 kts | 341° |
| 2026-04-23 16:47 | 3.75314 | 126.69996 | 3421 ft | 117 kts | 341° |
| 2026-04-23 16:48 | 3.76050 | 126.69655 | 3185 ft | 116 kts | 341° |
| 2026-04-23 16:48 | 3.76780 | 126.69316 | 3016 ft | 111 kts | 341° |
| 2026-04-23 16:48 | 3.77450 | 126.68995 | 3041 ft | 103 kts | 341° |
| 2026-04-23 16:48 | 3.78081 | 126.68695 | 3051 ft | 98 kts | 342° |
| 2026-04-23 16:49 | 3.78484 | 126.68506 | 3057 ft | 96 kts | 342° |
| 2026-04-23 16:49 | 3.79323 | 126.68119 | 3072 ft | 104 kts | 342° |
| 2026-04-23 16:49 | 3.79998 | 126.67816 | 3072 ft | 109 kts | 345° |
| 2026-04-23 16:49 | 3.80743 | 126.67691 | 3020 ft | 112 kts | 5° |
| 2026-04-23 16:50 | 3.81544 | 126.67677 | 2929 ft | 118 kts | 6° |
| 2026-04-23 16:50 | 3.82374 | 126.67672 | 2829 ft | 121 kts | 5° |
| 2026-04-23 16:50 | 3.83224 | 126.67664 | 2736 ft | 123 kts | 5° |
| 2026-04-23 16:50 | 3.84082 | 126.67652 | 2648 ft | 124 kts | 6° |
| 2026-04-23 16:51 | 3.84945 | 126.67637 | 2539 ft | 124 kts | 5° |
| 2026-04-23 16:51 | 3.85770 | 126.67618 | 2553 ft | 115 kts | 6° |
| 2026-04-23 16:51 | 3.86572 | 126.67598 | 2590 ft | 117 kts | 4° |
| 2026-04-23 16:51 | 3.87399 | 126.67575 | 2619 ft | 121 kts | 4° |
| 2026-04-23 16:52 | 3.88251 | 126.67555 | 2486 ft | 119 kts | 5° |
| 2026-04-23 16:52 | 3.89055 | 126.67538 | 2290 ft | 112 kts | 4° |
| 2026-04-23 16:52 | 3.89816 | 126.67520 | 2100 ft | 107 kts | 3° |
| 2026-04-23 16:52 | 3.90534 | 126.67504 | 2061 ft | 98 kts | 5° |
| 2026-04-23 16:53 | 3.91189 | 126.67489 | 2076 ft | 92 kts | 6° |
| 2026-04-23 16:53 | 3.91812 | 126.67482 | 2047 ft | 86 kts | 1° |
| 2026-04-23 16:53 | 3.92378 | 126.67475 | 2026 ft | 76 kts | 2° |
| 2026-04-23 16:53 | 3.92908 | 126.67460 | 2057 ft | 79 kts | 4° |
| 2026-04-23 16:54 | 3.93482 | 126.67458 | 2095 ft | 86 kts | 7° |
| 2026-04-23 16:54 | 3.94141 | 126.67461 | 2043 ft | 104 kts | 6° |
| 2026-04-23 16:54 | 3.94902 | 126.67438 | 2054 ft | 110 kts | 3° |
| 2026-04-23 16:54 | 3.95639 | 126.67411 | 2073 ft | 116 kts | 3° |
| 2026-04-23 16:55 | 3.96507 | 126.67390 | 1773 ft | 127 kts | 3° |
| 2026-04-23 16:55 | 3.97389 | 126.67394 | 1126 ft | 127 kts | 5° |
| 2026-04-23 16:55 | 3.98279 | 126.67403 | 606 ft | 124 kts | 5° |
| 2026-04-23 16:55 | 3.99060 | 126.67362 | 417 ft | 104 kts | 358° |
| 2026-04-23 16:56 | 3.99748 | 126.67339 | 169 ft | 94 kts | 2° |
| 2026-04-23 16:56 | 4.00354 | 126.67328 | 24 ft | 78 kts | 5° |
| 2026-04-23 16:56 | 4.00799 | 126.67322 | 16 ft | 52 kts | 355° |
| 2026-04-23 16:56 | 4.01069 | 126.67311 | 20 ft | 24 kts | 5° |
| 2026-04-23 16:57 | 4.01105 | 126.67315 | 23 ft | 8 kts | 177° |
| 2026-04-23 16:57 | 4.01053 | 126.67316 | 20 ft | 7 kts | 187° |
| 2026-04-23 16:57 | 4.01004 | 126.67310 | 19 ft | 7 kts | 183° |
| 2026-04-23 16:57 | 4.00955 | 126.67309 | 18 ft | 7 kts | 178° |
| 2026-04-23 16:58 | 4.00901 | 126.67315 | 17 ft | 9 kts | 172° |
| 2026-04-23 16:58 | 4.00818 | 126.67327 | 16 ft | 15 kts | 173° |
| 2026-04-23 16:58 | 4.00697 | 126.67338 | 16 ft | 18 kts | 182° |
| 2026-04-23 16:58 | 4.00607 | 126.67347 | 14 ft | 9 kts | 120° |
| 2026-04-23 16:59 | 4.00587 | 126.67404 | 14 ft | 9 kts | 157° |
| 2026-04-23 16:59 | 4.00576 | 126.67406 | 14 ft | 0 kts | 169° |